sensor_id;sensor_type;location;lat;lon;timestamp;P1;durP1;ratioP1;P2;durP2;ratioP2
24901;SDS011;31328;51.402;0.016;2022-09-09T00:01:06;5.85;;;2.22;;
24901;SDS011;31328;51.402;0.016;2022-09-09T00:03:40;7.60;;;1.90;;
24901;SDS011;31328;51.402;0.016;2022-09-09T00:06:23;7.57;;;2.28;;
24901;SDS011;31328;51.402;0.016;2022-09-09T00:12:15;4.97;;;2.20;;
24901;SDS011;31328;51.402;0.016;2022-09-09T00:17:31;6.85;;;2.40;;
24901;SDS011;31328;51.402;0.016;2022-09-09T00:20:24;3.55;;;1.98;;
24901;SDS011;31328;51.402;0.016;2022-09-09T00:23:00;5.50;;;2.28;;
24901;SDS011;31328;51.402;0.016;2022-09-09T00:28:26;9.18;;;2.83;;
24901;SDS011;31328;51.402;0.016;2022-09-09T00:30:59;5.97;;;3.15;;
24901;SDS011;31328;51.402;0.016;2022-09-09T00:33:36;7.35;;;2.10;;
24901;SDS011;31328;51.402;0.016;2022-09-09T00:36:04;5.05;;;1.88;;
24901;SDS011;31328;51.402;0.016;2022-09-09T00:38:41;4.85;;;2.30;;
24901;SDS011;31328;51.402;0.016;2022-09-09T00:43:44;6.43;;;1.75;;
24901;SDS011;31328;51.402;0.016;2022-09-09T00:54:34;5.80;;;1.50;;
24901;SDS011;31328;51.402;0.016;2022-09-09T01:02:28;5.97;;;2.15;;
24901;SDS011;31328;51.402;0.016;2022-09-09T01:05:00;4.18;;;1.80;;
24901;SDS011;31328;51.402;0.016;2022-09-09T01:07:33;2.95;;;2.40;;
24901;SDS011;31328;51.402;0.016;2022-09-09T01:10:00;6.30;;;1.80;;
24901;SDS011;31328;51.402;0.016;2022-09-09T01:12:41;3.35;;;1.95;;
24901;SDS011;31328;51.402;0.016;2022-09-09T01:15:22;5.38;;;2.05;;
24901;SDS011;31328;51.402;0.016;2022-09-09T01:17:58;5.43;;;2.30;;
24901;SDS011;31328;51.402;0.016;2022-09-09T01:20:39;4.38;;;2.17;;
24901;SDS011;31328;51.402;0.016;2022-09-09T01:26:18;5.38;;;1.75;;
24901;SDS011;31328;51.402;0.016;2022-09-09T01:29:12;4.43;;;2.20;;
24901;SDS011;31328;51.402;0.016;2022-09-09T01:31:51;4.30;;;1.95;;
24901;SDS011;31328;51.402;0.016;2022-09-09T01:34:18;3.25;;;2.13;;
24901;SDS011;31328;51.402;0.016;2022-09-09T01:39:18;5.22;;;2.22;;
24901;SDS011;31328;51.402;0.016;2022-09-09T01:41:51;4.03;;;2.05;;
24901;SDS011;31328;51.402;0.016;2022-09-09T01:44:19;3.97;;;2.30;;
24901;SDS011;31328;51.402;0.016;2022-09-09T01:46:46;5.25;;;2.53;;
24901;SDS011;31328;51.402;0.016;2022-09-09T01:49:16;6.55;;;2.20;;
24901;SDS011;31328;51.402;0.016;2022-09-09T01:51:43;6.15;;;2.50;;
24901;SDS011;31328;51.402;0.016;2022-09-09T01:54:14;2.15;;;1.80;;
24901;SDS011;31328;51.402;0.016;2022-09-09T02:03:06;5.18;;;2.10;;
24901;SDS011;31328;51.402;0.016;2022-09-09T02:07:48;5.05;;;1.77;;
24901;SDS011;31328;51.402;0.016;2022-09-09T02:10:32;7.57;;;2.95;;
24901;SDS011;31328;51.402;0.016;2022-09-09T02:13:31;6.38;;;2.13;;
24901;SDS011;31328;51.402;0.016;2022-09-09T02:21:19;6.57;;;1.27;;
24901;SDS011;31328;51.402;0.016;2022-09-09T02:23:47;3.15;;;1.15;;
24901;SDS011;31328;51.402;0.016;2022-09-09T02:26:17;4.47;;;1.50;;
24901;SDS011;31328;51.402;0.016;2022-09-09T02:31:21;2.85;;;1.05;;
24901;SDS011;31328;51.402;0.016;2022-09-09T02:33:56;2.22;;;1.25;;
24901;SDS011;31328;51.402;0.016;2022-09-09T02:36:26;2.40;;;1.02;;
24901;SDS011;31328;51.402;0.016;2022-09-09T02:38:56;1.83;;;1.00;;
24901;SDS011;31328;51.402;0.016;2022-09-09T02:41:28;2.13;;;1.00;;
24901;SDS011;31328;51.402;0.016;2022-09-09T02:43:58;3.53;;;1.23;;
24901;SDS011;31328;51.402;0.016;2022-09-09T02:48:59;2.65;;;1.58;;
24901;SDS011;31328;51.402;0.016;2022-09-09T02:57:22;7.05;;;1.98;;
24901;SDS011;31328;51.402;0.016;2022-09-09T02:59:49;6.03;;;2.10;;
24901;SDS011;31328;51.402;0.016;2022-09-09T03:02:18;5.85;;;2.05;;
24901;SDS011;31328;51.402;0.016;2022-09-09T03:04:49;6.32;;;2.22;;
24901;SDS011;31328;51.402;0.016;2022-09-09T03:07:18;7.03;;;2.13;;
24901;SDS011;31328;51.402;0.016;2022-09-09T03:09:46;4.68;;;2.20;;
24901;SDS011;31328;51.402;0.016;2022-09-09T03:12:12;3.65;;;1.67;;
24901;SDS011;31328;51.402;0.016;2022-09-09T03:14:39;6.43;;;2.30;;
24901;SDS011;31328;51.402;0.016;2022-09-09T03:17:06;6.32;;;2.17;;
24901;SDS011;31328;51.402;0.016;2022-09-09T03:19:37;4.13;;;2.88;;
24901;SDS011;31328;51.402;0.016;2022-09-09T03:22:09;4.57;;;2.78;;
24901;SDS011;31328;51.402;0.016;2022-09-09T03:24:39;6.03;;;2.38;;
24901;SDS011;31328;51.402;0.016;2022-09-09T03:27:06;4.13;;;2.45;;
24901;SDS011;31328;51.402;0.016;2022-09-09T03:29:35;6.15;;;2.22;;
24901;SDS011;31328;51.402;0.016;2022-09-09T03:32:04;5.50;;;2.55;;
24901;SDS011;31328;51.402;0.016;2022-09-09T03:34:30;6.65;;;2.53;;
24901;SDS011;31328;51.402;0.016;2022-09-09T03:36:58;6.97;;;2.35;;
24901;SDS011;31328;51.402;0.016;2022-09-09T03:39:25;5.20;;;1.88;;
24901;SDS011;31328;51.402;0.016;2022-09-09T03:41:51;4.88;;;2.50;;
24901;SDS011;31328;51.402;0.016;2022-09-09T03:44:18;5.20;;;2.50;;
24901;SDS011;31328;51.402;0.016;2022-09-09T03:46:46;8.88;;;2.75;;
24901;SDS011;31328;51.402;0.016;2022-09-09T03:49:13;7.30;;;2.38;;
24901;SDS011;31328;51.402;0.016;2022-09-09T03:51:41;8.82;;;2.75;;
24901;SDS011;31328;51.402;0.016;2022-09-09T03:54:09;7.53;;;2.95;;
24901;SDS011;31328;51.402;0.016;2022-09-09T03:56:36;4.18;;;2.20;;
24901;SDS011;31328;51.402;0.016;2022-09-09T03:59:03;4.80;;;2.13;;
24901;SDS011;31328;51.402;0.016;2022-09-09T04:01:30;3.80;;;2.13;;
24901;SDS011;31328;51.402;0.016;2022-09-09T04:03:56;4.70;;;2.13;;
24901;SDS011;31328;51.402;0.016;2022-09-09T04:06:24;4.82;;;2.00;;
24901;SDS011;31328;51.402;0.016;2022-09-09T04:08:51;6.78;;;2.80;;
24901;SDS011;31328;51.402;0.016;2022-09-09T04:11:19;8.20;;;2.35;;
24901;SDS011;31328;51.402;0.016;2022-09-09T04:13:48;5.32;;;2.50;;
24901;SDS011;31328;51.402;0.016;2022-09-09T04:16:16;6.68;;;3.40;;
24901;SDS011;31328;51.402;0.016;2022-09-09T04:18:43;6.55;;;2.97;;
24901;SDS011;31328;51.402;0.016;2022-09-09T04:21:10;8.15;;;2.47;;
24901;SDS011;31328;51.402;0.016;2022-09-09T04:23:38;5.28;;;2.45;;
24901;SDS011;31328;51.402;0.016;2022-09-09T04:26:05;5.85;;;2.55;;
24901;SDS011;31328;51.402;0.016;2022-09-09T04:28:33;4.22;;;2.40;;
24901;SDS011;31328;51.402;0.016;2022-09-09T04:31:08;8.27;;;2.55;;
24901;SDS011;31328;51.402;0.016;2022-09-09T04:33:39;4.35;;;2.40;;
24901;SDS011;31328;51.402;0.016;2022-09-09T04:36:06;4.40;;;2.28;;
24901;SDS011;31328;51.402;0.016;2022-09-09T04:38:34;5.82;;;2.50;;
24901;SDS011;31328;51.402;0.016;2022-09-09T04:41:01;5.78;;;2.92;;
24901;SDS011;31328;51.402;0.016;2022-09-09T04:43:28;4.38;;;2.83;;
24901;SDS011;31328;51.402;0.016;2022-09-09T04:45:57;4.55;;;2.65;;
24901;SDS011;31328;51.402;0.016;2022-09-09T04:48:25;6.10;;;2.55;;
24901;SDS011;31328;51.402;0.016;2022-09-09T04:53:25;7.82;;;2.63;;
24901;SDS011;31328;51.402;0.016;2022-09-09T04:56:05;4.50;;;2.70;;
24901;SDS011;31328;51.402;0.016;2022-09-09T04:58:40;5.32;;;2.83;;
24901;SDS011;31328;51.402;0.016;2022-09-09T05:03:39;4.53;;;3.08;;
24901;SDS011;31328;51.402;0.016;2022-09-09T05:06:09;4.40;;;2.47;;
24901;SDS011;31328;51.402;0.016;2022-09-09T05:08:37;5.20;;;2.22;;
24901;SDS011;31328;51.402;0.016;2022-09-09T05:13:57;3.75;;;2.50;;
24901;SDS011;31328;51.402;0.016;2022-09-09T05:16:24;4.00;;;2.50;;
24901;SDS011;31328;51.402;0.016;2022-09-09T05:18:50;5.72;;;2.85;;
24901;SDS011;31328;51.402;0.016;2022-09-09T05:21:19;6.05;;;2.67;;
24901;SDS011;31328;51.402;0.016;2022-09-09T05:23:48;5.88;;;3.50;;
24901;SDS011;31328;51.402;0.016;2022-09-09T05:26:15;8.10;;;2.67;;
24901;SDS011;31328;51.402;0.016;2022-09-09T05:28:45;5.40;;;3.00;;
24901;SDS011;31328;51.402;0.016;2022-09-09T05:31:13;6.95;;;3.10;;
24901;SDS011;31328;51.402;0.016;2022-09-09T05:33:43;6.43;;;2.70;;
24901;SDS011;31328;51.402;0.016;2022-09-09T05:36:16;5.63;;;2.67;;
24901;SDS011;31328;51.402;0.016;2022-09-09T05:38:45;6.60;;;3.17;;
24901;SDS011;31328;51.402;0.016;2022-09-09T05:41:13;7.28;;;3.65;;
24901;SDS011;31328;51.402;0.016;2022-09-09T05:43:44;4.80;;;3.20;;
24901;SDS011;31328;51.402;0.016;2022-09-09T05:46:19;6.78;;;3.08;;
24901;SDS011;31328;51.402;0.016;2022-09-09T05:48:50;7.80;;;3.83;;
24901;SDS011;31328;51.402;0.016;2022-09-09T05:51:19;9.52;;;4.32;;
24901;SDS011;31328;51.402;0.016;2022-09-09T05:53:48;6.22;;;3.30;;
24901;SDS011;31328;51.402;0.016;2022-09-09T05:56:17;5.88;;;3.60;;
24901;SDS011;31328;51.402;0.016;2022-09-09T05:58:48;5.45;;;2.90;;
24901;SDS011;31328;51.402;0.016;2022-09-09T06:01:31;6.18;;;3.40;;
24901;SDS011;31328;51.402;0.016;2022-09-09T06:04:00;6.15;;;3.17;;
24901;SDS011;31328;51.402;0.016;2022-09-09T06:06:31;7.53;;;3.72;;
24901;SDS011;31328;51.402;0.016;2022-09-09T06:09:03;7.10;;;3.50;;
24901;SDS011;31328;51.402;0.016;2022-09-09T06:11:36;8.40;;;4.07;;
24901;SDS011;31328;51.402;0.016;2022-09-09T06:14:04;6.30;;;4.05;;
24901;SDS011;31328;51.402;0.016;2022-09-09T06:16:32;8.82;;;4.30;;
24901;SDS011;31328;51.402;0.016;2022-09-09T06:18:59;7.47;;;3.83;;
24901;SDS011;31328;51.402;0.016;2022-09-09T06:21:29;8.13;;;3.92;;
24901;SDS011;31328;51.402;0.016;2022-09-09T06:24:00;7.47;;;3.60;;
24901;SDS011;31328;51.402;0.016;2022-09-09T06:26:27;8.85;;;3.95;;
24901;SDS011;31328;51.402;0.016;2022-09-09T06:29:01;5.53;;;3.72;;
24901;SDS011;31328;51.402;0.016;2022-09-09T06:31:30;9.75;;;4.50;;
24901;SDS011;31328;51.402;0.016;2022-09-09T06:34:04;6.47;;;3.40;;
24901;SDS011;31328;51.402;0.016;2022-09-09T06:36:32;7.68;;;4.45;;
24901;SDS011;31328;51.402;0.016;2022-09-09T06:39:00;6.38;;;3.83;;
24901;SDS011;31328;51.402;0.016;2022-09-09T06:41:28;8.40;;;4.40;;
24901;SDS011;31328;51.402;0.016;2022-09-09T06:43:57;6.90;;;4.53;;
24901;SDS011;31328;51.402;0.016;2022-09-09T06:46:32;8.85;;;3.95;;
24901;SDS011;31328;51.402;0.016;2022-09-09T06:49:00;7.65;;;4.13;;
24901;SDS011;31328;51.402;0.016;2022-09-09T06:51:29;6.97;;;4.15;;
24901;SDS011;31328;51.402;0.016;2022-09-09T06:54:00;7.72;;;3.92;;
24901;SDS011;31328;51.402;0.016;2022-09-09T06:56:30;5.70;;;3.72;;
24901;SDS011;31328;51.402;0.016;2022-09-09T06:59:08;8.00;;;3.85;;
24901;SDS011;31328;51.402;0.016;2022-09-09T07:01:36;6.18;;;3.33;;
24901;SDS011;31328;51.402;0.016;2022-09-09T07:04:09;7.45;;;3.42;;
24901;SDS011;31328;51.402;0.016;2022-09-09T07:06:44;8.27;;;3.78;;
24901;SDS011;31328;51.402;0.016;2022-09-09T07:09:16;5.60;;;3.58;;
24901;SDS011;31328;51.402;0.016;2022-09-09T07:11:46;5.43;;;3.80;;
24901;SDS011;31328;51.402;0.016;2022-09-09T07:14:15;8.10;;;3.45;;
24901;SDS011;31328;51.402;0.016;2022-09-09T07:16:45;6.10;;;3.60;;
24901;SDS011;31328;51.402;0.016;2022-09-09T07:19:14;8.27;;;4.13;;
24901;SDS011;31328;51.402;0.016;2022-09-09T07:21:42;6.78;;;3.45;;
24901;SDS011;31328;51.402;0.016;2022-09-09T07:24:11;6.47;;;3.63;;
24901;SDS011;31328;51.402;0.016;2022-09-09T07:26:39;7.15;;;3.65;;
24901;SDS011;31328;51.402;0.016;2022-09-09T07:29:07;5.88;;;3.20;;
24901;SDS011;31328;51.402;0.016;2022-09-09T07:31:35;7.63;;;3.72;;
24901;SDS011;31328;51.402;0.016;2022-09-09T07:34:06;8.05;;;3.95;;
24901;SDS011;31328;51.402;0.016;2022-09-09T07:36:35;5.65;;;3.17;;
24901;SDS011;31328;51.402;0.016;2022-09-09T07:39:06;6.38;;;3.00;;
24901;SDS011;31328;51.402;0.016;2022-09-09T07:41:36;7.53;;;3.38;;
24901;SDS011;31328;51.402;0.016;2022-09-09T07:44:08;5.53;;;2.95;;
24901;SDS011;31328;51.402;0.016;2022-09-09T07:46:40;5.53;;;2.78;;
24901;SDS011;31328;51.402;0.016;2022-09-09T07:49:09;6.88;;;3.05;;
24901;SDS011;31328;51.402;0.016;2022-09-09T07:51:38;6.07;;;2.90;;
24901;SDS011;31328;51.402;0.016;2022-09-09T07:54:08;5.32;;;3.25;;
24901;SDS011;31328;51.402;0.016;2022-09-09T07:56:39;4.28;;;2.70;;
24901;SDS011;31328;51.402;0.016;2022-09-09T07:59:06;5.90;;;3.13;;
24901;SDS011;31328;51.402;0.016;2022-09-09T08:01:36;6.05;;;2.83;;
24901;SDS011;31328;51.402;0.016;2022-09-09T08:04:08;4.82;;;2.20;;
24901;SDS011;31328;51.402;0.016;2022-09-09T08:06:37;4.53;;;2.55;;
24901;SDS011;31328;51.402;0.016;2022-09-09T08:09:08;5.65;;;2.80;;
24901;SDS011;31328;51.402;0.016;2022-09-09T08:11:37;5.43;;;2.53;;
24901;SDS011;31328;51.402;0.016;2022-09-09T08:14:06;6.22;;;2.75;;
24901;SDS011;31328;51.402;0.016;2022-09-09T08:16:36;5.28;;;3.05;;
24901;SDS011;31328;51.402;0.016;2022-09-09T08:19:06;5.90;;;2.85;;
24901;SDS011;31328;51.402;0.016;2022-09-09T08:21:35;6.68;;;2.78;;
24901;SDS011;31328;51.402;0.016;2022-09-09T08:24:03;4.72;;;2.47;;
24901;SDS011;31328;51.402;0.016;2022-09-09T08:26:35;5.30;;;3.00;;
24901;SDS011;31328;51.402;0.016;2022-09-09T08:29:09;4.40;;;2.75;;
24901;SDS011;31328;51.402;0.016;2022-09-09T08:31:37;4.07;;;2.53;;
24901;SDS011;31328;51.402;0.016;2022-09-09T08:34:09;5.15;;;2.53;;
24901;SDS011;31328;51.402;0.016;2022-09-09T08:36:38;4.28;;;2.40;;
24901;SDS011;31328;51.402;0.016;2022-09-09T08:39:10;3.92;;;2.70;;
24901;SDS011;31328;51.402;0.016;2022-09-09T08:47:08;3.10;;;2.30;;
24901;SDS011;31328;51.402;0.016;2022-09-09T08:52:37;6.30;;;3.80;;
24901;SDS011;31328;51.402;0.016;2022-09-09T08:55:14;4.38;;;2.85;;
24901;SDS011;31328;51.402;0.016;2022-09-09T08:57:57;4.88;;;3.13;;
24901;SDS011;31328;51.402;0.016;2022-09-09T09:00:30;6.55;;;2.92;;
24901;SDS011;31328;51.402;0.016;2022-09-09T09:05:54;5.53;;;3.42;;
24901;SDS011;31328;51.402;0.016;2022-09-09T09:11:13;5.93;;;3.38;;
24901;SDS011;31328;51.402;0.016;2022-09-09T09:18:55;5.35;;;4.18;;
24901;SDS011;31328;51.402;0.016;2022-09-09T09:24:18;6.40;;;4.32;;
24901;SDS011;31328;51.402;0.016;2022-09-09T09:26:46;4.55;;;3.20;;
24901;SDS011;31328;51.402;0.016;2022-09-09T09:29:14;5.82;;;3.75;;
24901;SDS011;31328;51.402;0.016;2022-09-09T09:31:47;6.88;;;4.47;;
24901;SDS011;31328;51.402;0.016;2022-09-09T09:34:17;6.03;;;3.33;;
24901;SDS011;31328;51.402;0.016;2022-09-09T09:36:59;5.78;;;4.00;;
24901;SDS011;31328;51.402;0.016;2022-09-09T09:39:32;5.95;;;4.00;;
24901;SDS011;31328;51.402;0.016;2022-09-09T09:42:12;7.22;;;3.55;;
24901;SDS011;31328;51.402;0.016;2022-09-09T09:44:44;5.50;;;3.72;;
24901;SDS011;31328;51.402;0.016;2022-09-09T09:47:21;8.18;;;4.05;;
24901;SDS011;31328;51.402;0.016;2022-09-09T09:50:00;8.55;;;4.28;;
24901;SDS011;31328;51.402;0.016;2022-09-09T09:52:32;7.72;;;4.43;;
24901;SDS011;31328;51.402;0.016;2022-09-09T09:55:03;8.38;;;4.75;;
24901;SDS011;31328;51.402;0.016;2022-09-09T09:57:33;7.68;;;4.40;;
24901;SDS011;31328;51.402;0.016;2022-09-09T10:02:51;8.20;;;5.25;;
24901;SDS011;31328;51.402;0.016;2022-09-09T10:05:23;8.38;;;4.57;;
24901;SDS011;31328;51.402;0.016;2022-09-09T10:08:09;8.45;;;4.40;;
24901;SDS011;31328;51.402;0.016;2022-09-09T10:10:58;9.15;;;5.00;;
24901;SDS011;31328;51.402;0.016;2022-09-09T10:17:03;7.63;;;4.55;;
24901;SDS011;31328;51.402;0.016;2022-09-09T10:20:11;7.18;;;4.47;;
24901;SDS011;31328;51.402;0.016;2022-09-09T10:22:50;8.45;;;5.32;;
24901;SDS011;31328;51.402;0.016;2022-09-09T10:30:44;8.10;;;5.18;;
24901;SDS011;31328;51.402;0.016;2022-09-09T10:38:53;8.48;;;4.53;;
24901;SDS011;31328;51.402;0.016;2022-09-09T10:41:43;8.85;;;5.78;;
24901;SDS011;31328;51.402;0.016;2022-09-09T10:44:33;9.23;;;5.93;;
24901;SDS011;31328;51.402;0.016;2022-09-09T10:47:25;10.23;;;5.97;;
24901;SDS011;31328;51.402;0.016;2022-09-09T10:53:21;13.15;;;6.43;;
24901;SDS011;31328;51.402;0.016;2022-09-09T10:55:53;13.10;;;5.68;;
24901;SDS011;31328;51.402;0.016;2022-09-09T10:58:30;9.10;;;5.55;;
24901;SDS011;31328;51.402;0.016;2022-09-09T11:01:03;9.65;;;5.15;;
24901;SDS011;31328;51.402;0.016;2022-09-09T11:03:44;9.30;;;5.57;;
24901;SDS011;31328;51.402;0.016;2022-09-09T11:06:19;9.73;;;5.53;;
24901;SDS011;31328;51.402;0.016;2022-09-09T11:08:47;10.95;;;5.93;;
24901;SDS011;31328;51.402;0.016;2022-09-09T11:11:17;9.82;;;5.43;;
24901;SDS011;31328;51.402;0.016;2022-09-09T11:21:51;11.32;;;5.95;;
24901;SDS011;31328;51.402;0.016;2022-09-09T11:24:29;9.68;;;5.50;;
24901;SDS011;31328;51.402;0.016;2022-09-09T11:40:36;4.47;;;2.97;;
24901;SDS011;31328;51.402;0.016;2022-09-09T11:46:07;3.35;;;3.00;;
24901;SDS011;31328;51.402;0.016;2022-09-09T11:48:35;5.32;;;2.97;;
24901;SDS011;31328;51.402;0.016;2022-09-09T11:56:26;6.18;;;3.90;;
24901;SDS011;31328;51.402;0.016;2022-09-09T12:04:30;5.50;;;3.15;;
24901;SDS011;31328;51.402;0.016;2022-09-09T12:10:26;3.97;;;2.83;;
24901;SDS011;31328;51.402;0.016;2022-09-09T12:13:07;3.58;;;2.92;;
24901;SDS011;31328;51.402;0.016;2022-09-09T12:15:54;2.85;;;2.40;;
24901;SDS011;31328;51.402;0.016;2022-09-09T12:18:23;4.78;;;2.65;;
24901;SDS011;31328;51.402;0.016;2022-09-09T12:24:00;3.15;;;2.40;;
24901;SDS011;31328;51.402;0.016;2022-09-09T12:29:37;4.03;;;1.92;;
24901;SDS011;31328;51.402;0.016;2022-09-09T12:32:17;5.22;;;2.50;;
24901;SDS011;31328;51.402;0.016;2022-09-09T12:34:50;4.40;;;2.50;;
24901;SDS011;31328;51.402;0.016;2022-09-09T12:37:38;4.10;;;2.42;;
24901;SDS011;31328;51.402;0.016;2022-09-09T12:40:14;2.83;;;2.30;;
24901;SDS011;31328;51.402;0.016;2022-09-09T12:42:46;3.42;;;2.28;;
24901;SDS011;31328;51.402;0.016;2022-09-09T12:45:17;3.42;;;1.92;;
24901;SDS011;31328;51.402;0.016;2022-09-09T12:50:25;4.47;;;1.88;;
24901;SDS011;31328;51.402;0.016;2022-09-09T12:52:58;3.72;;;2.20;;
24901;SDS011;31328;51.402;0.016;2022-09-09T12:55:28;2.17;;;1.67;;
24901;SDS011;31328;51.402;0.016;2022-09-09T12:58:01;2.85;;;1.67;;
24901;SDS011;31328;51.402;0.016;2022-09-09T13:00:31;1.95;;;1.65;;
24901;SDS011;31328;51.402;0.016;2022-09-09T13:03:13;2.13;;;1.67;;
24901;SDS011;31328;51.402;0.016;2022-09-09T13:05:43;2.55;;;1.60;;
24901;SDS011;31328;51.402;0.016;2022-09-09T13:08:13;2.28;;;1.40;;
24901;SDS011;31328;51.402;0.016;2022-09-09T13:10:41;3.05;;;1.80;;
24901;SDS011;31328;51.402;0.016;2022-09-09T13:13:30;3.22;;;1.98;;
24901;SDS011;31328;51.402;0.016;2022-09-09T13:16:02;3.33;;;1.88;;
24901;SDS011;31328;51.402;0.016;2022-09-09T13:18:36;5.93;;;2.47;;
24901;SDS011;31328;51.402;0.016;2022-09-09T13:21:06;2.00;;;1.70;;
24901;SDS011;31328;51.402;0.016;2022-09-09T13:23:34;2.60;;;1.58;;
24901;SDS011;31328;51.402;0.016;2022-09-09T13:26:03;2.60;;;1.67;;
24901;SDS011;31328;51.402;0.016;2022-09-09T13:28:32;2.35;;;1.63;;
24901;SDS011;31328;51.402;0.016;2022-09-09T13:31:02;3.17;;;1.40;;
24901;SDS011;31328;51.402;0.016;2022-09-09T13:33:36;2.15;;;1.50;;
24901;SDS011;31328;51.402;0.016;2022-09-09T13:36:04;3.67;;;1.80;;
24901;SDS011;31328;51.402;0.016;2022-09-09T13:41:21;2.33;;;1.50;;
24901;SDS011;31328;51.402;0.016;2022-09-09T13:43:49;3.00;;;1.60;;
24901;SDS011;31328;51.402;0.016;2022-09-09T13:46:37;2.03;;;1.27;;
24901;SDS011;31328;51.402;0.016;2022-09-09T13:51:41;1.60;;;1.38;;
24901;SDS011;31328;51.402;0.016;2022-09-09T13:54:11;2.47;;;1.50;;
24901;SDS011;31328;51.402;0.016;2022-09-09T13:56:39;2.78;;;1.60;;
24901;SDS011;31328;51.402;0.016;2022-09-09T13:59:11;2.28;;;1.48;;
24901;SDS011;31328;51.402;0.016;2022-09-09T14:01:41;3.08;;;1.63;;
24901;SDS011;31328;51.402;0.016;2022-09-09T14:04:08;2.10;;;1.75;;
24901;SDS011;31328;51.402;0.016;2022-09-09T14:06:35;2.47;;;1.98;;
24901;SDS011;31328;51.402;0.016;2022-09-09T14:09:05;2.58;;;1.40;;
24901;SDS011;31328;51.402;0.016;2022-09-09T14:11:32;2.67;;;1.80;;
24901;SDS011;31328;51.402;0.016;2022-09-09T14:13:59;3.70;;;2.10;;
24901;SDS011;31328;51.402;0.016;2022-09-09T14:16:26;4.20;;;1.88;;
24901;SDS011;31328;51.402;0.016;2022-09-09T14:18:53;3.55;;;2.10;;
24901;SDS011;31328;51.402;0.016;2022-09-09T14:21:22;2.75;;;1.77;;
24901;SDS011;31328;51.402;0.016;2022-09-09T14:23:49;2.42;;;1.92;;
24901;SDS011;31328;51.402;0.016;2022-09-09T14:26:15;3.47;;;1.63;;
24901;SDS011;31328;51.402;0.016;2022-09-09T14:28:42;2.65;;;1.77;;
24901;SDS011;31328;51.402;0.016;2022-09-09T14:31:08;2.35;;;1.60;;
24901;SDS011;31328;51.402;0.016;2022-09-09T14:33:35;4.10;;;2.20;;
24901;SDS011;31328;51.402;0.016;2022-09-09T14:36:02;1.83;;;1.40;;
24901;SDS011;31328;51.402;0.016;2022-09-09T14:38:30;2.80;;;1.70;;
24901;SDS011;31328;51.402;0.016;2022-09-09T14:40:59;1.48;;;1.08;;
24901;SDS011;31328;51.402;0.016;2022-09-09T14:43:26;2.47;;;1.55;;
24901;SDS011;31328;51.402;0.016;2022-09-09T14:45:53;3.03;;;1.60;;
24901;SDS011;31328;51.402;0.016;2022-09-09T14:48:19;2.10;;;1.50;;
24901;SDS011;31328;51.402;0.016;2022-09-09T14:50:46;3.50;;;2.00;;
24901;SDS011;31328;51.402;0.016;2022-09-09T14:53:12;3.08;;;1.75;;
24901;SDS011;31328;51.402;0.016;2022-09-09T14:55:38;2.83;;;1.75;;
24901;SDS011;31328;51.402;0.016;2022-09-09T14:58:05;2.58;;;1.60;;
24901;SDS011;31328;51.402;0.016;2022-09-09T15:00:32;2.60;;;1.80;;
24901;SDS011;31328;51.402;0.016;2022-09-09T15:02:58;3.65;;;1.85;;
24901;SDS011;31328;51.402;0.016;2022-09-09T15:05:24;1.90;;;1.60;;
24901;SDS011;31328;51.402;0.016;2022-09-09T15:07:50;2.20;;;1.45;;
24901;SDS011;31328;51.402;0.016;2022-09-09T15:10:17;2.40;;;1.70;;
24901;SDS011;31328;51.402;0.016;2022-09-09T15:12:43;2.70;;;1.65;;
24901;SDS011;31328;51.402;0.016;2022-09-09T15:15:10;2.75;;;1.52;;
24901;SDS011;31328;51.402;0.016;2022-09-09T15:17:38;2.08;;;1.60;;
24901;SDS011;31328;51.402;0.016;2022-09-09T15:20:04;4.05;;;1.75;;
24901;SDS011;31328;51.402;0.016;2022-09-09T15:22:31;1.73;;;1.10;;
24901;SDS011;31328;51.402;0.016;2022-09-09T15:24:59;3.55;;;1.10;;
24901;SDS011;31328;51.402;0.016;2022-09-09T15:27:25;2.30;;;1.02;;
24901;SDS011;31328;51.402;0.016;2022-09-09T15:29:52;1.40;;;0.90;;
24901;SDS011;31328;51.402;0.016;2022-09-09T15:32:18;1.20;;;0.90;;
24901;SDS011;31328;51.402;0.016;2022-09-09T15:34:44;3.42;;;0.95;;
24901;SDS011;31328;51.402;0.016;2022-09-09T15:37:11;1.73;;;0.90;;
24901;SDS011;31328;51.402;0.016;2022-09-09T15:39:40;2.47;;;1.00;;
24901;SDS011;31328;51.402;0.016;2022-09-09T15:42:07;2.28;;;1.13;;
24901;SDS011;31328;51.402;0.016;2022-09-09T15:44:40;1.83;;;0.90;;
24901;SDS011;31328;51.402;0.016;2022-09-09T15:47:10;2.63;;;1.40;;
24901;SDS011;31328;51.402;0.016;2022-09-09T15:49:38;1.23;;;0.75;;
24901;SDS011;31328;51.402;0.016;2022-09-09T15:52:04;3.28;;;1.55;;
24901;SDS011;31328;51.402;0.016;2022-09-09T15:54:32;1.50;;;0.93;;
24901;SDS011;31328;51.402;0.016;2022-09-09T15:57:02;1.73;;;1.10;;
24901;SDS011;31328;51.402;0.016;2022-09-09T15:59:30;2.67;;;1.50;;
24901;SDS011;31328;51.402;0.016;2022-09-09T16:01:57;3.95;;;1.67;;
24901;SDS011;31328;51.402;0.016;2022-09-09T16:04:25;2.72;;;1.25;;
24901;SDS011;31328;51.402;0.016;2022-09-09T16:06:53;4.40;;;1.60;;
24901;SDS011;31328;51.402;0.016;2022-09-09T16:09:21;3.40;;;1.95;;
24901;SDS011;31328;51.402;0.016;2022-09-09T16:11:48;3.75;;;1.63;;
24901;SDS011;31328;51.402;0.016;2022-09-09T16:14:14;2.17;;;1.15;;
24901;SDS011;31328;51.402;0.016;2022-09-09T16:16:42;2.45;;;1.13;;
24901;SDS011;31328;51.402;0.016;2022-09-09T16:19:09;2.20;;;1.10;;
24901;SDS011;31328;51.402;0.016;2022-09-09T16:21:43;1.77;;;0.93;;
24901;SDS011;31328;51.402;0.016;2022-09-09T16:24:11;1.95;;;1.20;;
24901;SDS011;31328;51.402;0.016;2022-09-09T16:26:44;1.35;;;0.98;;
24901;SDS011;31328;51.402;0.016;2022-09-09T16:29:13;1.40;;;1.00;;
24901;SDS011;31328;51.402;0.016;2022-09-09T16:31:40;2.50;;;1.50;;
24901;SDS011;31328;51.402;0.016;2022-09-09T16:34:07;2.40;;;1.40;;
24901;SDS011;31328;51.402;0.016;2022-09-09T16:36:35;3.83;;;1.70;;
24901;SDS011;31328;51.402;0.016;2022-09-09T16:39:05;2.70;;;1.67;;
24901;SDS011;31328;51.402;0.016;2022-09-09T16:41:34;4.40;;;1.73;;
24901;SDS011;31328;51.402;0.016;2022-09-09T16:44:03;4.45;;;1.88;;
24901;SDS011;31328;51.402;0.016;2022-09-09T16:46:32;4.43;;;2.15;;
24901;SDS011;31328;51.402;0.016;2022-09-09T16:49:05;3.03;;;2.10;;
24901;SDS011;31328;51.402;0.016;2022-09-09T16:51:34;2.85;;;1.80;;
24901;SDS011;31328;51.402;0.016;2022-09-09T16:54:13;2.63;;;1.90;;
24901;SDS011;31328;51.402;0.016;2022-09-09T16:56:42;3.75;;;2.25;;
24901;SDS011;31328;51.402;0.016;2022-09-09T16:59:27;3.58;;;2.05;;
24901;SDS011;31328;51.402;0.016;2022-09-09T17:01:53;3.67;;;2.20;;
24901;SDS011;31328;51.402;0.016;2022-09-09T17:04:25;4.55;;;2.13;;
24901;SDS011;31328;51.402;0.016;2022-09-09T17:06:54;3.85;;;2.00;;
24901;SDS011;31328;51.402;0.016;2022-09-09T17:09:21;3.10;;;2.17;;
24901;SDS011;31328;51.402;0.016;2022-09-09T17:11:49;4.97;;;3.20;;
24901;SDS011;31328;51.402;0.016;2022-09-09T17:14:18;3.03;;;2.30;;
24901;SDS011;31328;51.402;0.016;2022-09-09T17:16:45;4.68;;;2.72;;
24901;SDS011;31328;51.402;0.016;2022-09-09T17:19:12;5.80;;;3.25;;
24901;SDS011;31328;51.402;0.016;2022-09-09T17:21:39;4.43;;;2.60;;
24901;SDS011;31328;51.402;0.016;2022-09-09T17:24:06;4.60;;;3.17;;
24901;SDS011;31328;51.402;0.016;2022-09-09T17:26:33;4.05;;;3.03;;
24901;SDS011;31328;51.402;0.016;2022-09-09T17:29:00;5.55;;;3.20;;
24901;SDS011;31328;51.402;0.016;2022-09-09T17:31:28;4.07;;;3.13;;
24901;SDS011;31328;51.402;0.016;2022-09-09T17:33:55;5.82;;;3.63;;
24901;SDS011;31328;51.402;0.016;2022-09-09T17:36:23;5.00;;;2.67;;
24901;SDS011;31328;51.402;0.016;2022-09-09T17:38:57;4.47;;;2.90;;
24901;SDS011;31328;51.402;0.016;2022-09-09T17:41:29;5.75;;;3.35;;
24901;SDS011;31328;51.402;0.016;2022-09-09T17:43:58;3.90;;;2.75;;
24901;SDS011;31328;51.402;0.016;2022-09-09T17:46:25;4.82;;;2.85;;
24901;SDS011;31328;51.402;0.016;2022-09-09T17:48:58;4.35;;;2.90;;